Time;durP1;ratioP1;P1;durP2;ratioP2;P2;SDS_P1;SDS_P2;PMS_P1;PMS_P2;Temp;Humidity;BMP_temperature;BMP_pressure;BME280_temperature;BME280_humidity;BME280_pressure;Samples;Min_cycle;Max_cycle;Signal;HPM_P1;HPM_P2
2024/01/01 00:00:49;;;;;;;19.73;9.20;;;7.60;99.90;;;;;;4990531;28;20511;-55
2024/01/01 00:03:14;;;;;;;22.63;8.57;;;7.60;99.90;;;;;;4993827;28;20411;-57
2024/01/01 00:05:40;;;;;;;22.42;9.10;;;7.60;99.90;;;;;;4993729;28;20022;-57
2024/01/01 00:08:05;;;;;;;23.38;10.50;;;7.70;99.90;;;;;;4998830;28;20370;-55
2024/01/01 00:10:31;;;;;;;14.60;7.13;;;7.70;99.90;;;;;;4989318;28;20113;-54
2024/01/01 00:12:57;;;;;;;15.43;6.72;;;7.70;99.90;;;;;;4998825;28;20029;-56
2024/01/01 00:15:22;;;;;;;13.40;5.97;;;7.70;99.90;;;;;;4991088;28;20058;-57
2024/01/01 00:17:48;;;;;;;19.27;5.65;;;7.70;99.90;;;;;;4985448;28;20527;-57
2024/01/01 00:20:13;;;;;;;21.63;7.90;;;7.70;99.90;;;;;;4994985;28;20034;-54
2024/01/01 00:22:39;;;;;;;22.77;11.07;;;7.60;99.90;;;;;;4976966;28;20041;-56
2024/01/01 00:25:05;;;;;;;17.17;7.70;;;7.60;99.90;;;;;;4994960;28;20022;-56
2024/01/01 00:27:34;;;;;;;18.85;8.23;;;7.50;99.90;;;;;;4994232;28;20109;-54
2024/01/01 00:30:00;;;;;;;25.20;10.13;;;7.40;99.90;;;;;;4994382;28;20030;-54
2024/01/01 00:32:26;;;;;;;17.00;8.43;;;7.40;99.90;;;;;;4993362;28;20088;-55
2024/01/01 00:34:52;;;;;;;18.75;7.38;;;7.30;99.90;;;;;;4991905;28;20039;-56
2024/01/01 00:37:17;;;;;;;20.45;7.43;;;7.30;99.90;;;;;;4990220;28;20026;-57
2024/01/01 00:39:43;;;;;;;21.98;6.88;;;7.40;99.90;;;;;;4994430;28;20035;-56
2024/01/01 00:42:08;;;;;;;16.10;6.78;;;7.40;99.90;;;;;;4994888;28;20026;-56
2024/01/01 00:44:34;;;;;;;14.43;6.15;;;7.40;99.90;;;;;;4993961;28;20030;-56
2024/01/01 00:46:59;;;;;;;13.05;4.70;;;7.40;99.90;;;;;;4993134;28;20487;-56
2024/01/01 00:49:25;;;;;;;18.08;5.30;;;7.40;99.90;;;;;;4993195;28;20021;-53
2024/01/01 00:51:51;;;;;;;15.02;5.13;;;7.40;99.90;;;;;;4993851;28;20109;-56
2024/01/01 00:54:16;;;;;;;12.52;5.78;;;7.40;99.90;;;;;;4992306;28;20484;-57
2024/01/01 00:56:42;;;;;;;15.75;4.28;;;7.40;99.90;;;;;;4993443;28;20038;-54
2024/01/01 00:59:08;;;;;;;13.88;3.95;;;7.30;99.90;;;;;;4986031;28;20026;-55
2024/01/01 01:01:34;;;;;;;9.30;4.00;;;7.30;99.90;;;;;;4986296;28;20038;-53
2024/01/01 01:03:59;;;;;;;9.90;3.45;;;7.20;99.90;;;;;;4987980;28;20062;-56
2024/01/01 01:06:25;;;;;;;6.97;3.28;;;7.20;99.90;;;;;;4989925;28;20439;-56
2024/01/01 01:08:50;;;;;;;6.53;3.10;;;7.10;99.90;;;;;;4994933;28;20094;-55
2024/01/01 01:11:16;;;;;;;11.52;3.00;;;7.00;99.90;;;;;;4992176;28;20030;-54
2024/01/01 01:13:42;;;;;;;11.82;3.20;;;6.90;99.90;;;;;;4990011;28;20042;-56
2024/01/01 01:16:07;;;;;;;10.55;3.15;;;6.90;99.90;;;;;;4991253;28;20034;-54
2024/01/01 01:18:33;;;;;;;9.65;2.40;;;6.80;99.90;;;;;;4991893;28;20030;-56
2024/01/01 01:20:59;;;;;;;8.40;2.90;;;6.80;99.90;;;;;;4993231;28;20528;-56
2024/01/01 01:23:24;;;;;;;8.18;2.00;;;6.70;99.90;;;;;;4990043;28;20027;-52
2024/01/01 01:25:50;;;;;;;8.77;2.08;;;6.70;99.90;;;;;;4989691;28;20034;-53
2024/01/01 01:28:23;;;;;;;6.57;2.38;;;6.70;99.90;;;;;;4991777;28;20026;-56
2024/01/01 01:30:48;;;;;;;10.55;2.70;;;6.70;99.90;;;;;;4991507;28;20446;-53
2024/01/01 01:33:14;;;;;;;11.95;3.08;;;6.80;99.90;;;;;;4990380;28;20065;-56
2024/01/01 01:35:39;;;;;;;16.48;3.85;;;6.90;99.90;;;;;;4986456;28;20035;-54
2024/01/01 01:38:05;;;;;;;7.53;2.08;;;6.90;99.90;;;;;;4992381;28;20069;-53
2024/01/01 01:40:30;;;;;;;7.47;1.95;;;7.00;99.90;;;;;;4991611;28;20042;-55
2024/01/01 01:42:56;;;;;;;5.20;1.88;;;7.10;99.90;;;;;;4989308;28;20026;-54
2024/01/01 01:45:22;;;;;;;6.38;2.45;;;7.10;99.90;;;;;;4991468;28;20492;-53
2024/01/01 01:47:48;;;;;;;8.35;2.72;;;7.10;99.90;;;;;;4990611;28;20045;-52
2024/01/01 01:50:15;;;;;;;11.85;2.65;;;7.20;99.90;;;;;;4995273;28;20026;-55
2024/01/01 01:52:43;;;;;;;8.23;1.77;;;7.10;99.90;;;;;;4988754;28;20113;-53
2024/01/01 01:55:11;;;;;;;6.68;2.47;;;7.20;99.90;;;;;;4989362;28;20362;-52
2024/01/01 01:57:38;;;;;;;6.97;2.13;;;7.20;99.90;;;;;;4989592;28;20026;-56
2024/01/01 02:00:05;;;;;;;8.30;2.17;;;7.20;99.90;;;;;;4989084;28;20397;-56
2024/01/01 02:02:34;;;;;;;11.65;1.80;;;7.30;99.90;;;;;;4929850;28;20050;-53
2024/01/01 02:04:59;;;;;;;15.73;2.38;;;7.30;99.90;;;;;;4949859;28;20079;-54
2024/01/01 02:07:25;;;;;;;13.73;2.85;;;7.30;99.90;;;;;;4950557;28;20588;-56
2024/01/01 02:09:50;;;;;;;5.10;1.80;;;7.30;99.90;;;;;;4947450;28;20195;-54
2024/01/01 02:12:16;;;;;;;9.55;2.00;;;7.30;99.90;;;;;;4949699;28;20082;-56
2024/01/01 02:14:42;;;;;;;10.90;1.75;;;7.20;99.90;;;;;;4949663;28;20079;-55
2024/01/01 02:17:07;;;;;;;9.98;1.90;;;7.30;99.90;;;;;;4950201;29;20410;-56
2024/01/01 02:19:33;;;;;;;7.45;1.70;;;7.20;99.90;;;;;;4950066;28;20513;-54
2024/01/01 02:21:59;;;;;;;9.43;2.08;;;7.30;99.90;;;;;;4949569;28;20069;-56
2024/01/01 02:24:24;;;;;;;10.85;1.88;;;7.30;99.90;;;;;;4949036;28;20031;-55
2024/01/01 02:26:50;;;;;;;13.85;1.98;;;7.30;99.90;;;;;;4947798;28;20031;-54
2024/01/01 02:29:16;;;;;;;10.20;2.00;;;7.30;99.90;;;;;;4948567;28;20039;-52
2024/01/01 02:31:42;;;;;;;7.05;2.22;;;7.40;99.90;;;;;;4946346;28;20039;-53
2024/01/01 02:34:07;;;;;;;7.00;3.13;;;7.40;99.90;;;;;;4969648;28;20069;-56
2024/01/01 02:36:38;;;;;;;12.85;1.60;;;7.40;99.90;;;;;;4989913;28;20062;-56
2024/01/01 02:39:05;;;;;;;9.15;1.48;;;7.40;99.90;;;;;;4993201;28;20050;-52
2024/01/01 02:41:33;;;;;;;8.05;1.40;;;7.40;99.90;;;;;;4991550;28;20030;-54
2024/01/01 02:43:58;;;;;;;13.15;1.90;;;7.40;99.90;;;;;;4991829;28;20027;-52
2024/01/01 02:46:24;;;;;;;8.27;1.52;;;7.40;99.90;;;;;;4991782;28;20022;-54
2024/01/01 02:48:50;;;;;;;12.30;1.80;;;7.50;99.90;;;;;;4991513;28;20486;-55
2024/01/01 02:51:15;;;;;;;13.52;2.15;;;7.50;99.90;;;;;;4991657;28;20222;-54
2024/01/01 02:53:41;;;;;;;5.82;1.55;;;7.50;99.90;;;;;;4988533;28;20081;-52
2024/01/01 02:56:18;;;;;;;9.23;1.25;;;7.50;99.90;;;;;;4988292;28;20034;-55
2024/01/01 02:58:46;;;;;;;9.27;1.45;;;7.50;99.90;;;;;;4986759;28;20037;-53
2024/01/01 03:01:12;;;;;;;12.27;2.30;;;7.50;99.90;;;;;;4989948;28;20041;-55
2024/01/01 03:03:37;;;;;;;17.35;1.85;;;7.40;99.90;;;;;;4990913;28;20030;-54
2024/01/01 03:06:03;;;;;;;12.52;3.63;;;7.40;99.90;;;;;;4989014;28;20038;-53
2024/01/01 03:08:29;;;;;;;8.02;1.17;;;7.30;99.90;;;;;;4990901;28;20027;-53
2024/01/01 03:10:55;;;;;;;11.82;1.52;;;7.30;99.90;;;;;;4991295;28;20034;-55
2024/01/01 03:13:20;;;;;;;14.85;1.45;;;7.30;99.90;;;;;;4992257;28;20094;-55
2024/01/01 03:15:46;;;;;;;12.63;1.38;;;7.30;99.90;;;;;;4991531;28;20036;-52
2024/01/01 03:18:12;;;;;;;7.88;1.83;;;7.30;99.90;;;;;;4991137;28;20039;-53
2024/01/01 03:20:38;;;;;;;10.32;2.83;;;7.40;99.90;;;;;;4990055;28;20138;-54
2024/01/01 03:23:04;;;;;;;6.85;1.40;;;7.40;99.90;;;;;;4990535;28;20034;-55
2024/01/01 03:25:30;;;;;;;9.93;1.83;;;7.40;99.90;;;;;;4989420;28;20022;-55
2024/01/01 03:27:56;;;;;;;19.83;2.85;;;7.30;99.90;;;;;;4990609;28;20669;-55
2024/01/01 03:30:22;;;;;;;12.85;1.75;;;7.30;99.90;;;;;;4990986;28;20041;-55
2024/01/01 03:32:50;;;;;;;9.95;1.52;;;7.30;99.90;;;;;;4990880;28;20070;-53
2024/01/01 03:35:16;;;;;;;9.80;1.88;;;7.20;99.90;;;;;;4996443;28;20032;-53
2024/01/01 03:37:41;;;;;;;13.25;1.90;;;7.20;99.90;;;;;;4996090;28;20048;-51
2024/01/01 03:40:07;;;;;;;9.02;1.67;;;7.30;99.90;;;;;;4984347;28;20485;-53
2024/01/01 03:42:33;;;;;;;16.58;2.88;;;7.30;99.90;;;;;;4997002;28;20034;-52
2024/01/01 03:44:59;;;;;;;9.75;2.75;;;7.30;99.90;;;;;;4995924;28;20034;-53
2024/01/01 03:47:25;;;;;;;7.82;1.38;;;7.40;99.90;;;;;;4999301;28;20029;-54
2024/01/01 03:49:50;;;;;;;8.80;1.50;;;7.40;99.90;;;;;;4999892;28;20037;-55
2024/01/01 03:52:16;;;;;;;14.20;1.85;;;7.40;99.90;;;;;;5002897;28;20527;-56
2024/01/01 03:54:42;;;;;;;15.57;1.73;;;7.40;99.90;;;;;;5002992;28;20030;-56
2024/01/01 03:57:07;;;;;;;9.30;1.45;;;7.40;99.90;;;;;;5004801;28;20029;-55
2024/01/01 03:59:33;;;;;;;14.57;1.85;;;7.50;99.90;;;;;;4964134;28;20140;-54
2024/01/01 04:01:58;;;;;;;12.93;1.42;;;7.50;99.90;;;;;;4994116;28;20025;-52
2024/01/01 04:04:24;;;;;;;8.82;1.58;;;7.50;99.90;;;;;;4995450;28;20086;-54
2024/01/01 04:06:50;;;;;;;12.75;1.25;;;7.50;99.90;;;;;;4995820;28;20109;-53
2024/01/01 04:09:15;;;;;;;8.73;1.45;;;7.60;99.90;;;;;;4995713;28;20421;-52
2024/01/01 04:11:41;;;;;;;12.18;1.85;;;7.60;99.90;;;;;;5000388;28;20092;-52
2024/01/01 04:14:06;;;;;;;8.55;1.23;;;7.60;99.90;;;;;;4998379;28;20412;-52
2024/01/01 04:16:32;;;;;;;11.75;1.98;;;7.60;99.90;;;;;;4995387;28;20116;-52
2024/01/01 04:18:58;;;;;;;7.90;2.15;;;7.60;99.90;;;;;;4996088;28;20105;-52
2024/01/01 04:21:23;;;;;;;6.70;1.38;;;7.60;99.90;;;;;;4997747;28;20030;-52
2024/01/01 04:23:49;;;;;;;15.52;1.52;;;7.60;99.90;;;;;;5000050;28;20152;-52
2024/01/01 04:26:15;;;;;;;13.48;1.67;;;7.60;99.90;;;;;;5004659;28;20030;-56
2024/01/01 04:28:41;;;;;;;13.27;1.90;;;7.60;99.90;;;;;;4997151;28;20085;-56
2024/01/01 04:31:07;;;;;;;9.60;1.85;;;7.60;99.90;;;;;;4995049;28;20453;-55
2024/01/01 04:33:32;;;;;;;14.43;2.50;;;7.60;99.90;;;;;;4993579;28;20146;-56
2024/01/01 04:35:58;;;;;;;10.98;1.73;;;7.60;99.90;;;;;;4999456;28;20396;-56
2024/01/01 04:38:23;;;;;;;10.57;1.63;;;7.60;99.90;;;;;;4992605;28;20034;-53
2024/01/01 04:40:49;;;;;;;10.40;2.15;;;7.60;99.90;;;;;;4996052;28;20034;-54
2024/01/01 04:43:14;;;;;;;7.55;1.75;;;7.60;99.90;;;;;;4994181;28;20027;-53
2024/01/01 04:45:40;;;;;;;12.15;2.83;;;7.60;99.90;;;;;;4997117;28;20034;-55
2024/01/01 04:48:06;;;;;;;7.93;2.35;;;7.60;99.90;;;;;;4998539;28;20031;-54
2024/01/01 04:50:32;;;;;;;8.70;2.42;;;7.60;99.90;;;;;;4996925;28;20460;-53
2024/01/01 04:52:58;;;;;;;17.88;1.33;;;7.60;99.90;;;;;;4995569;28;20032;-52
2024/01/01 04:55:23;;;;;;;14.27;1.95;;;7.60;99.90;;;;;;4996582;28;20560;-52
2024/01/01 04:57:49;;;;;;;14.85;1.98;;;7.60;99.90;;;;;;5002627;28;20053;-52
2024/01/01 05:00:15;;;;;;;7.35;1.60;;;7.60;99.90;;;;;;4998555;28;20030;-53
2024/01/01 05:02:40;;;;;;;14.02;2.78;;;7.60;99.90;;;;;;4998702;28;20042;-54
2024/01/01 05:05:08;;;;;;;7.05;2.25;;;7.60;99.90;;;;;;4995444;28;20033;-54
2024/01/01 05:07:34;;;;;;;10.00;2.25;;;7.60;99.90;;;;;;4992900;28;20034;-55
2024/01/01 05:10:00;;;;;;;6.40;1.80;;;7.60;99.90;;;;;;4996630;28;20456;-54
2024/01/01 05:12:25;;;;;;;9.77;2.38;;;7.60;99.90;;;;;;4995758;28;20030;-56
2024/01/01 05:14:51;;;;;;;15.07;2.20;;;7.60;99.90;;;;;;4992754;28;20035;-55
2024/01/01 05:17:17;;;;;;;12.40;1.67;;;7.70;99.90;;;;;;4999010;28;20037;-56
2024/01/01 05:19:42;;;;;;;11.80;2.03;;;7.60;99.90;;;;;;5004184;28;20110;-53
2024/01/01 05:22:08;;;;;;;8.48;1.58;;;7.60;99.90;;;;;;5001420;28;20037;-55
2024/01/01 05:24:35;;;;;;;6.95;1.85;;;7.60;99.90;;;;;;4999396;28;20400;-55
2024/01/01 05:27:03;;;;;;;14.02;2.97;;;7.70;99.90;;;;;;4997404;28;20076;-56
2024/01/01 05:29:30;;;;;;;13.93;2.00;;;7.70;99.90;;;;;;4998296;28;20014;-55
2024/01/01 05:31:55;;;;;;;12.52;1.67;;;7.70;99.90;;;;;;5000238;28;20391;-55
2024/01/01 05:34:21;;;;;;;10.98;1.60;;;7.70;99.90;;;;;;5004721;28;20030;-52
2024/01/01 05:36:46;;;;;;;10.65;2.80;;;7.70;99.90;;;;;;5002738;28;20030;-56
2024/01/01 05:39:12;;;;;;;12.55;2.33;;;7.70;99.90;;;;;;5003267;28;20044;-55
2024/01/01 05:41:38;;;;;;;11.38;3.05;;;7.70;99.90;;;;;;4999843;28;20038;-53
2024/01/01 05:44:03;;;;;;;14.07;2.13;;;7.70;99.90;;;;;;5003021;28;20034;-55
2024/01/01 05:46:31;;;;;;;11.25;2.10;;;7.70;99.90;;;;;;4998465;28;20030;-56
2024/01/01 05:48:57;;;;;;;9.45;1.65;;;7.70;99.90;;;;;;4998676;28;20562;-54
2024/01/01 05:51:22;;;;;;;11.57;2.90;;;7.70;99.90;;;;;;4997105;28;20037;-53
2024/01/01 05:53:48;;;;;;;14.18;2.05;;;7.70;99.90;;;;;;5002118;28;20404;-52
2024/01/01 05:56:13;;;;;;;10.25;2.47;;;7.60;99.90;;;;;;5010122;28;20044;-56
2024/01/01 05:58:39;;;;;;;20.45;2.17;;;7.60;99.90;;;;;;5002144;28;20030;-53
2024/01/01 06:01:05;;;;;;;16.95;2.35;;;7.70;99.90;;;;;;4997767;28;20030;-54
2024/01/01 06:03:30;;;;;;;11.00;2.20;;;7.60;99.90;;;;;;5004101;28;20518;-54
2024/01/01 06:05:56;;;;;;;10.75;2.00;;;7.70;99.90;;;;;;5000978;28;20115;-54
2024/01/01 06:08:22;;;;;;;18.02;1.95;;;7.60;99.90;;;;;;4996074;28;20495;-54
2024/01/01 06:10:47;;;;;;;11.30;2.05;;;7.60;99.90;;;;;;5004868;28;20045;-53
2024/01/01 06:13:14;;;;;;;15.25;1.48;;;7.60;99.90;;;;;;4996404;28;20361;-55
2024/01/01 06:15:40;;;;;;;13.48;3.20;;;7.70;99.90;;;;;;4997220;28;20029;-55
2024/01/01 06:18:06;;;;;;;16.27;2.50;;;7.70;99.90;;;;;;5006708;28;20028;-54
2024/01/01 06:20:32;;;;;;;13.20;1.92;;;7.70;99.90;;;;;;5005652;28;20026;-54
2024/01/01 06:22:57;;;;;;;11.82;2.03;;;7.60;99.90;;;;;;4998492;28;20038;-56
2024/01/01 06:25:23;;;;;;;12.00;1.75;;;7.70;99.90;;;;;;4997934;28;20037;-54
2024/01/01 06:27:50;;;;;;;16.20;3.20;;;7.60;99.90;;;;;;5007605;28;20042;-53
2024/01/01 06:30:15;;;;;;;10.50;1.45;;;7.60;99.90;;;;;;4992868;28;20036;-56
2024/01/01 06:32:41;;;;;;;8.55;2.05;;;7.60;99.90;;;;;;4998953;28;20456;-52
2024/01/01 06:35:07;;;;;;;15.13;2.30;;;7.60;99.90;;;;;;5005631;28;21819;-54
2024/01/01 06:37:33;;;;;;;9.43;1.88;;;7.60;99.90;;;;;;5001781;28;20057;-54
2024/01/01 06:39:58;;;;;;;14.90;2.20;;;7.60;99.90;;;;;;5001118;28;20022;-52
2024/01/01 06:42:24;;;;;;;13.20;1.77;;;7.60;99.90;;;;;;4998626;28;20121;-56
2024/01/01 06:44:49;;;;;;;18.38;2.92;;;7.60;99.90;;;;;;5001100;28;20065;-55
2024/01/01 06:47:15;;;;;;;9.57;1.65;;;7.60;99.90;;;;;;4999370;28;20500;-54
2024/01/01 06:49:40;;;;;;;11.35;2.25;;;7.60;99.90;;;;;;5007027;28;20101;-53
2024/01/01 06:52:07;;;;;;;9.02;2.65;;;7.60;99.90;;;;;;5007058;28;20388;-53
2024/01/01 06:54:33;;;;;;;17.00;2.30;;;7.60;99.90;;;;;;4999220;28;20040;-54
2024/01/01 06:56:58;;;;;;;11.35;1.95;;;7.60;99.90;;;;;;5005412;28;20400;-53
2024/01/01 06:59:28;;;;;;;16.38;3.58;;;7.60;99.90;;;;;;4996892;28;20109;-52
2024/01/01 07:01:53;;;;;;;14.20;2.30;;;7.60;99.90;;;;;;4983899;28;20045;-55
2024/01/01 07:04:19;;;;;;;11.68;2.55;;;7.60;99.90;;;;;;5002961;28;20026;-53
2024/01/01 07:06:45;;;;;;;17.08;1.98;;;7.60;99.90;;;;;;4992528;28;20026;-52
2024/01/01 07:09:10;;;;;;;14.55;2.97;;;7.60;99.90;;;;;;5002769;28;20029;-55
2024/01/01 07:11:36;;;;;;;9.57;1.58;;;7.50;99.90;;;;;;4991544;28;20054;-57
2024/01/01 07:14:02;;;;;;;13.38;3.05;;;7.50;99.90;;;;;;4995767;28;20034;-53
2024/01/01 07:16:28;;;;;;;12.45;1.83;;;7.40;99.90;;;;;;4998626;28;20018;-53
2024/01/01 07:18:54;;;;;;;14.70;2.22;;;7.40;99.90;;;;;;4995494;28;20041;-53
2024/01/01 07:21:19;;;;;;;8.15;3.25;;;7.40;99.90;;;;;;4997528;28;20381;-52
2024/01/01 07:23:45;;;;;;;11.02;2.30;;;7.30;99.90;;;;;;5002185;28;20100;-55
2024/01/01 07:26:10;;;;;;;65.50;16.88;;;7.30;99.90;;;;;;4996435;28;20025;-55
2024/01/01 07:28:36;;;;;;;28.15;9.15;;;7.30;99.90;;;;;;5003551;28;20037;-55
2024/01/01 07:31:01;;;;;;;17.88;4.88;;;7.30;99.90;;;;;;5000384;28;20034;-56
2024/01/01 07:33:27;;;;;;;73.55;23.20;;;7.30;99.90;;;;;;4997016;28;20386;-54
2024/01/01 07:35:52;;;;;;;165.80;45.05;;;7.30;99.90;;;;;;5005621;28;20030;-53
2024/01/01 07:38:18;;;;;;;81.25;22.77;;;7.40;99.90;;;;;;5000960;28;20022;-55
2024/01/01 07:40:44;;;;;;;45.05;10.48;;;7.40;99.90;;;;;;4995019;28;20401;-53
2024/01/01 07:43:10;;;;;;;37.75;9.60;;;7.40;99.90;;;;;;4996317;28;20393;-53
2024/01/01 07:45:35;;;;;;;25.75;4.65;;;7.50;99.90;;;;;;4992496;28;20485;-53
2024/01/01 07:48:01;;;;;;;19.42;3.05;;;7.50;99.90;;;;;;4991158;28;20468;-52
2024/01/01 07:50:26;;;;;;;16.73;3.20;;;7.50;99.90;;;;;;5003214;28;20093;-55
2024/01/01 07:52:52;;;;;;;20.42;3.78;;;7.40;99.90;;;;;;4995824;28;20393;-54
2024/01/01 07:55:18;;;;;;;14.73;4.25;;;7.50;99.90;;;;;;4995044;28;20062;-54
2024/01/01 07:57:46;;;;;;;15.13;4.57;;;7.50;99.90;;;;;;4998290;28;20030;-52
2024/01/01 08:00:12;;;;;;;25.63;7.70;;;7.40;99.90;;;;;;4991206;28;20026;-52
2024/01/01 08:02:38;;;;;;;34.30;10.07;;;7.40;99.90;;;;;;5006205;28;20029;-53
2024/01/01 08:05:04;;;;;;;34.70;8.98;;;7.40;99.90;;;;;;4985712;28;20030;-52
2024/01/01 08:07:30;;;;;;;36.78;9.52;;;7.40;99.90;;;;;;4998998;28;20022;-52
2024/01/01 08:09:55;;;;;;;29.02;8.90;;;7.30;99.90;;;;;;5000414;28;20041;-55
2024/01/01 08:12:21;;;;;;;28.63;7.60;;;7.30;99.90;;;;;;4997378;28;20037;-53
2024/01/01 08:14:48;;;;;;;23.63;7.00;;;7.30;99.90;;;;;;4991423;28;20058;-54
2024/01/01 08:17:13;;;;;;;21.63;4.45;;;7.20;99.90;;;;;;4993663;28;20736;-52
2024/01/01 08:19:39;;;;;;;24.15;6.55;;;7.20;99.90;;;;;;5004962;28;20037;-52
2024/01/01 08:22:05;;;;;;;20.65;3.25;;;7.10;99.90;;;;;;5004368;28;20119;-56
2024/01/01 08:24:31;;;;;;;7.95;2.22;;;7.00;99.90;;;;;;5007353;28;20029;-55
2024/01/01 08:26:56;;;;;;;9.50;2.83;;;7.00;99.90;;;;;;5003731;28;20036;-52
2024/01/01 08:29:22;;;;;;;6.75;1.48;;;6.90;99.90;;;;;;5007916;28;20093;-54
2024/01/01 08:31:47;;;;;;;13.90;1.98;;;6.90;99.90;;;;;;5000165;28;20101;-53
2024/01/01 08:34:13;;;;;;;9.40;2.33;;;6.90;99.90;;;;;;5002861;28;20024;-54
2024/01/01 08:36:38;;;;;;;10.80;1.60;;;6.80;99.90;;;;;;5005917;28;20045;-52
2024/01/01 08:39:04;;;;;;;9.02;2.83;;;6.80;99.90;;;;;;5009608;28;20022;-55
2024/01/01 08:41:30;;;;;;;12.77;2.00;;;6.80;99.90;;;;;;4983844;28;20062;-55
2024/01/01 08:43:58;;;;;;;11.05;1.92;;;6.80;99.90;;;;;;5002617;28;20654;-55
2024/01/01 08:46:24;;;;;;;12.35;3.72;;;6.80;99.90;;;;;;4994386;28;20121;-53
2024/01/01 08:48:52;;;;;;;10.75;2.65;;;6.80;99.90;;;;;;5001429;28;20128;-55
2024/01/01 08:51:18;;;;;;;7.72;1.40;;;6.70;99.90;;;;;;5004532;28;20539;-55
2024/01/01 08:53:44;;;;;;;7.88;1.13;;;6.70;99.90;;;;;;5006788;28;20551;-55
2024/01/01 08:56:09;;;;;;;3.97;0.95;;;6.70;99.90;;;;;;5000105;28;20026;-55
2024/01/01 08:58:35;;;;;;;4.25;1.40;;;6.70;99.90;;;;;;4996831;28;20030;-53
2024/01/01 09:01:01;;;;;;;3.20;1.38;;;6.70;99.90;;;;;;4994951;28;20035;-52
2024/01/01 09:03:29;;;;;;;2.55;0.93;;;6.70;99.90;;;;;;4992261;28;20026;-51
2024/01/01 09:05:57;;;;;;;4.20;1.35;;;6.70;99.90;;;;;;4995120;28;20040;-56
2024/01/01 09:08:23;;;;;;;9.88;2.03;;;6.70;99.90;;;;;;4995248;28;20034;-54
2024/01/01 09:10:49;;;;;;;5.88;1.10;;;6.70;99.90;;;;;;4996390;28;20044;-53
2024/01/01 09:13:15;;;;;;;8.15;2.17;;;6.80;99.90;;;;;;4995313;28;20022;-52
2024/01/01 09:15:40;;;;;;;13.50;3.00;;;6.70;99.90;;;;;;4996024;28;20034;-52
2024/01/01 09:18:07;;;;;;;10.95;3.17;;;6.80;99.90;;;;;;4996957;28;20049;-55
2024/01/01 09:20:33;;;;;;;9.63;1.95;;;6.70;99.90;;;;;;4995587;28;20034;-54
2024/01/01 09:22:59;;;;;;;7.63;1.70;;;6.80;99.90;;;;;;4995916;28;20042;-53
2024/01/01 09:25:25;;;;;;;3.88;1.17;;;6.80;99.90;;;;;;4994794;28;20034;-55
2024/01/01 09:27:52;;;;;;;9.73;2.15;;;6.80;99.90;;;;;;4996931;28;20396;-53
2024/01/01 09:30:17;;;;;;;2.95;1.15;;;6.80;99.90;;;;;;4994708;28;20496;-52
2024/01/01 09:32:43;;;;;;;5.40;1.10;;;6.80;99.90;;;;;;4997667;28;20070;-53
2024/01/01 09:35:08;;;;;;;6.03;1.95;;;6.90;99.90;;;;;;4996022;28;20036;-52
2024/01/01 09:37:35;;;;;;;4.45;1.08;;;6.90;99.90;;;;;;4997742;28;20021;-54
2024/01/01 09:40:01;;;;;;;2.92;0.55;;;6.90;99.90;;;;;;4995565;28;20030;-54
2024/01/01 09:42:26;;;;;;;2.50;0.85;;;6.90;99.90;;;;;;4995012;28;20118;-56
2024/01/01 09:44:53;;;;;;;5.13;1.25;;;6.90;99.90;;;;;;4996517;28;20413;-53
2024/01/01 09:47:18;;;;;;;6.40;1.88;;;7.00;99.90;;;;;;4995113;28;20096;-55
2024/01/01 09:49:44;;;;;;;2.63;0.68;;;7.00;99.90;;;;;;4997809;28;20022;-55
2024/01/01 09:52:14;;;;;;;3.88;0.93;;;7.00;99.90;;;;;;4997296;28;20098;-52
2024/01/01 09:54:40;;;;;;;4.32;0.90;;;7.00;99.90;;;;;;4995803;28;20034;-52
2024/01/01 09:57:06;;;;;;;2.97;0.40;;;7.00;99.90;;;;;;4996619;28;20026;-52
2024/01/01 09:59:39;;;;;;;2.72;0.35;;;6.90;99.90;;;;;;4995819;28;20029;-55
2024/01/01 10:02:06;;;;;;;4.65;0.63;;;6.90;99.90;;;;;;4988364;28;20098;-52
2024/01/01 10:04:32;;;;;;;1.42;0.70;;;6.90;99.90;;;;;;4997210;28;20117;-54
2024/01/01 10:07:01;;;;;;;4.22;0.47;;;6.90;99.90;;;;;;4994572;28;20384;-53
2024/01/01 10:09:28;;;;;;;3.08;0.63;;;6.90;99.90;;;;;;4996724;28;20023;-52
2024/01/01 10:12:09;;;;;;;1.08;0.38;;;6.90;99.90;;;;;;4994870;28;20447;-52
2024/01/01 10:14:46;;;;;;;0.73;0.38;;;6.90;99.90;;;;;;4994012;28;20047;-51
2024/01/01 10:17:13;;;;;;;8.65;2.78;;;6.90;99.90;;;;;;4994750;28;20034;-54
2024/01/01 10:19:50;;;;;;;7.28;2.95;;;7.00;99.90;;;;;;4998419;28;20528;-56
2024/01/01 10:22:19;;;;;;;23.20;8.48;;;7.10;99.90;;;;;;4994373;28;20034;-56
2024/01/01 10:24:55;;;;;;;13.45;5.03;;;7.10;99.90;;;;;;4995530;28;20041;-55
2024/01/01 10:27:22;;;;;;;4.13;1.73;;;7.20;99.90;;;;;;4974129;28;20382;-53
2024/01/01 10:29:48;;;;;;;25.50;9.50;;;7.20;99.90;;;;;;4997899;28;20027;-55
2024/01/01 10:32:18;;;;;;;2.50;1.27;;;7.20;99.90;;;;;;4996043;28;20438;-51
2024/01/01 10:34:45;;;;;;;4.10;1.35;;;7.20;99.90;;;;;;4994493;28;20022;-54
2024/01/01 10:37:13;;;;;;;9.88;2.42;;;7.20;99.90;;;;;;4989089;28;20026;-55
2024/01/01 10:39:39;;;;;;;13.65;5.50;;;7.20;99.90;;;;;;4998275;28;20077;-55
2024/01/01 10:42:06;;;;;;;7.88;2.03;;;7.30;99.90;;;;;;4992986;28;20038;-52
2024/01/01 10:44:31;;;;;;;5.80;1.75;;;7.20;99.90;;;;;;4996642;28;20041;-55
2024/01/01 10:47:00;;;;;;;5.35;2.17;;;7.20;99.90;;;;;;4996589;28;20026;-54
2024/01/01 10:49:30;;;;;;;7.80;1.80;;;7.30;99.90;;;;;;4994717;28;20026;-54
2024/01/01 10:52:14;;;;;;;5.95;1.65;;;7.30;99.90;;;;;;4996668;28;20116;-55
2024/01/01 10:54:58;;;;;;;9.27;2.67;;;7.20;99.90;;;;;;4997114;28;20126;-54
2024/01/01 10:57:46;;;;;;;3.85;1.55;;;7.20;99.90;;;;;;4993181;28;20405;-54
2024/01/01 11:00:27;;;;;;;91.95;38.85;;;7.30;99.90;;;;;;4992392;28;20038;-54
2024/01/01 11:02:53;;;;;;;20.77;9.32;;;7.30;99.90;;;;;;4996352;28;20044;-55
2024/01/01 11:05:18;;;;;;;9.43;2.10;;;7.30;99.90;;;;;;4976987;28;20026;-55
2024/01/01 11:07:57;;;;;;;12.50;3.70;;;7.40;99.90;;;;;;4995131;28;20065;-56
2024/01/01 11:10:42;;;;;;;15.93;6.20;;;7.40;99.90;;;;;;4991735;28;20097;-53
2024/01/01 11:13:26;;;;;;;11.30;4.18;;;7.40;99.90;;;;;;4992393;28;20045;-53
2024/01/01 11:15:59;;;;;;;7.22;2.05;;;7.40;99.90;;;;;;4996762;28;20025;-54
2024/01/01 11:18:32;;;;;;;46.25;13.40;;;7.40;99.90;;;;;;4997517;28;20381;-52
2024/01/01 11:21:00;;;;;;;21.90;5.15;;;7.40;99.90;;;;;;4995395;28;20045;-56
2024/01/01 11:23:47;;;;;;;5.55;2.00;;;7.40;99.90;;;;;;4996239;28;20068;-55
2024/01/01 11:26:22;;;;;;;3.60;1.35;;;7.40;99.90;;;;;;4996449;28;20025;-53
2024/01/01 11:28:51;;;;;;;17.27;3.97;;;7.50;99.90;;;;;;4997625;28;20367;-55
2024/01/01 11:31:17;;;;;;;9.80;2.80;;;7.50;99.90;;;;;;4994011;28;20026;-55
2024/01/01 11:33:43;;;;;;;35.55;11.57;;;7.60;99.90;;;;;;4994830;28;20552;-56
2024/01/01 11:36:09;;;;;;;10.50;2.53;;;7.60;99.90;;;;;;4993748;28;20458;-55
2024/01/01 11:38:35;;;;;;;11.63;3.33;;;7.60;99.90;;;;;;4979942;28;20030;-54
2024/01/01 11:41:01;;;;;;;15.50;4.85;;;7.60;99.90;;;;;;4989809;28;20030;-55
2024/01/01 11:43:26;;;;;;;5.43;2.08;;;7.70;99.90;;;;;;4996923;28;20041;-53
2024/01/01 11:45:56;;;;;;;8.80;1.83;;;7.60;99.90;;;;;;4991856;28;20033;-54
2024/01/01 11:48:22;;;;;;;6.53;1.38;;;7.60;99.90;;;;;;4996212;28;20437;-53
2024/01/01 11:50:49;;;;;;;5.50;2.25;;;7.70;99.90;;;;;;4999533;28;20034;-54
2024/01/01 11:53:20;;;;;;;5.18;1.38;;;7.70;99.90;;;;;;4996393;28;20042;-54
2024/01/01 11:55:47;;;;;;;4.70;1.27;;;7.70;99.90;;;;;;4993881;28;20113;-54
2024/01/01 11:58:13;;;;;;;6.00;1.50;;;7.70;99.90;;;;;;4998661;28;20022;-52
2024/01/01 12:00:40;;;;;;;7.20;1.58;;;7.70;99.90;;;;;;4992432;28;20034;-55
2024/01/01 12:03:05;;;;;;;8.77;2.10;;;7.60;99.90;;;;;;4993221;28;20392;-54
2024/01/01 12:05:32;;;;;;;4.13;1.20;;;7.60;99.90;;;;;;4997037;28;20022;-54
2024/01/01 12:07:59;;;;;;;10.60;3.65;;;7.60;99.90;;;;;;4994292;28;20040;-54
2024/01/01 12:10:26;;;;;;;2.08;0.90;;;7.60;99.90;;;;;;4996389;28;20028;-56
2024/01/01 12:13:03;;;;;;;3.25;1.05;;;7.70;99.90;;;;;;5002939;28;20034;-54
2024/01/01 12:15:32;;;;;;;7.05;1.30;;;7.70;99.90;;;;;;4997092;28;20035;-52
2024/01/01 12:17:57;;;;;;;6.90;1.80;;;7.70;99.90;;;;;;5002300;28;20535;-54
2024/01/01 12:20:24;;;;;;;4.78;1.20;;;7.70;99.90;;;;;;5001879;28;20030;-56
2024/01/01 12:22:50;;;;;;;9.77;1.73;;;7.70;99.90;;;;;;5003849;28;20038;-55
2024/01/01 12:25:21;;;;;;;11.43;1.90;;;7.70;99.90;;;;;;5001184;28;20101;-53
2024/01/01 12:28:08;;;;;;;4.82;0.90;;;7.80;99.90;;;;;;5001297;28;20109;-53
2024/01/01 12:30:35;;;;;;;5.65;1.23;;;7.70;99.90;;;;;;4998668;28;20054;-55
2024/01/01 12:33:02;;;;;;;5.38;2.20;;;7.70;99.90;;;;;;5000133;28;20037;-53
2024/01/01 12:35:27;;;;;;;6.10;1.45;;;7.70;99.90;;;;;;5001745;28;20027;-54
2024/01/01 12:37:54;;;;;;;5.43;1.55;;;7.70;99.90;;;;;;5002081;28;20038;-56
2024/01/01 12:40:20;;;;;;;7.57;1.77;;;7.80;99.90;;;;;;4994478;28;20041;-53
2024/01/01 12:42:46;;;;;;;7.05;1.73;;;7.80;99.90;;;;;;4995212;28;20126;-54
2024/01/01 12:45:16;;;;;;;13.18;4.68;;;7.80;99.90;;;;;;4993628;28;20126;-54
2024/01/01 12:47:42;;;;;;;13.40;3.30;;;7.80;99.90;;;;;;4999625;28;20437;-53